Time;durP1;ratioP1;P1;durP2;ratioP2;P2;SDS_P1;SDS_P2;PMS_P1;PMS_P2;Temp;Humidity;BMP_temperature;BMP_pressure;BME280_temperature;BME280_humidity;BME280_pressure;Samples;Min_cycle;Max_cycle;Signal;HPM_P1;HPM_P2
2022/12/28 00:02:10;;;;;;;5.88;5.40;;;;;;;5.27;100.00;101714.16;5244389;28;20048;-68
2022/12/28 00:04:41;;;;;;;8.93;6.10;;;;;;;5.30;100.00;101705.72;5244865;28;20017;-68
2022/12/28 00:07:11;;;;;;;8.30;5.45;;;;;;;5.28;100.00;101700.56;5245776;28;20078;-69
2022/12/28 00:09:42;;;;;;;6.55;6.15;;;;;;;5.23;100.00;101683.47;5245259;28;20028;-67
2022/12/28 00:12:12;;;;;;;8.27;6.03;;;;;;;5.21;100.00;101689.00;5244719;28;20048;-68
2022/12/28 00:14:42;;;;;;;6.30;5.93;;;;;;;5.16;100.00;101690.66;5245268;28;20023;-67
2022/12/28 00:17:13;;;;;;;6.05;5.65;;;;;;;5.10;100.00;101678.88;5227036;28;20074;-68
2022/12/28 00:19:43;;;;;;;6.55;6.13;;;;;;;5.11;100.00;101677.88;5245171;28;20020;-68
2022/12/28 00:22:14;;;;;;;6.00;5.68;;;;;;;4.84;100.00;101620.72;5244601;28;20024;-69
2022/12/28 00:24:44;;;;;;;5.60;5.13;;;;;;;5.16;100.00;101662.03;5244558;28;20436;-68
2022/12/28 00:27:14;;;;;;;5.95;5.55;;;;;;;5.19;100.00;101664.31;5244802;28;20036;-65
2022/12/28 00:29:45;;;;;;;8.15;6.60;;;;;;;5.19;100.00;101658.13;5244811;28;20017;-68
2022/12/28 00:32:15;;;;;;;7.03;6.45;;;;;;;5.22;100.00;101657.69;5244255;28;20025;-68
2022/12/28 00:34:46;;;;;;;8.63;5.80;;;;;;;5.22;100.00;101658.53;5244450;28;20020;-67
2022/12/28 00:37:16;;;;;;;5.75;5.45;;;;;;;5.23;100.00;101641.44;5244816;28;20020;-68
2022/12/28 00:39:46;;;;;;;6.10;5.70;;;;;;;5.28;100.00;101640.84;5226572;28;20473;-68
2022/12/28 00:42:17;;;;;;;6.20;5.78;;;;;;;5.22;100.00;101620.22;5243921;28;20511;-68
2022/12/28 00:44:47;;;;;;;5.07;4.75;;;;;;;5.30;100.00;101626.22;5244146;28;20027;-67
2022/12/28 00:47:17;;;;;;;5.10;4.80;;;;;;;5.30;100.00;101626.22;5226238;28;20024;-65
2022/12/28 00:49:48;;;;;;;4.82;4.63;;;;;;;5.33;100.00;101627.66;5244152;28;20028;-67
2022/12/28 00:52:18;;;;;;;6.25;5.47;;;;;;;5.35;100.00;101626.44;5243691;28;20107;-68
2022/12/28 00:54:48;;;;;;;5.15;4.75;;;;;;;5.38;100.00;101628.72;5243847;28;20050;-67
2022/12/28 00:57:19;;;;;;;6.05;5.03;;;;;;;5.42;100.00;101627.28;5244176;28;20099;-68
2022/12/28 00:59:49;;;;;;;5.38;5.13;;;;;;;5.42;100.00;101619.25;5244283;28;20186;-68
2022/12/28 01:02:19;;;;;;;9.32;6.05;;;;;;;5.41;100.00;101619.47;5243731;28;20046;-68
2022/12/28 01:04:50;;;;;;;7.00;6.60;;;;;;;5.46;100.00;101617.00;5244055;28;20062;-68
2022/12/28 01:07:20;;;;;;;7.32;6.70;;;;;;;5.48;100.00;101609.59;5244467;28;20032;-68
2022/12/28 01:09:50;;;;;;;4.35;4.07;;;;;;;5.45;100.00;101598.44;5244014;28;20027;-65
2022/12/28 01:12:21;;;;;;;5.13;4.85;;;;;;;5.39;100.00;101579.47;5243398;28;20025;-67
2022/12/28 01:14:51;;;;;;;6.30;5.80;;;;;;;5.56;100.00;101589.78;5243769;28;20095;-68
2022/12/28 01:17:21;;;;;;;5.60;5.15;;;;;;;5.59;100.00;101584.03;5243743;28;20024;-67
2022/12/28 01:19:52;;;;;;;5.63;5.25;;;;;;;5.62;100.00;101581.75;5243888;28;20027;-67
2022/12/28 01:22:22;;;;;;;6.95;6.30;;;;;;;5.68;100.00;101583.63;5243393;28;20029;-68
2022/12/28 01:24:53;;;;;;;5.55;5.25;;;;;;;5.71;100.00;101579.72;5243409;28;20024;-68
2022/12/28 01:27:23;;;;;;;7.50;7.00;;;;;;;5.72;100.00;101573.31;5243966;28;20025;-68
2022/12/28 01:29:54;;;;;;;5.10;4.70;;;;;;;5.77;100.00;101560.13;5243898;28;20027;-65
2022/12/28 01:32:24;;;;;;;6.97;6.35;;;;;;;5.80;100.00;101565.06;5243322;28;20116;-67
2022/12/28 01:34:54;;;;;;;6.25;5.78;;;;;;;5.82;100.00;101563.00;5244122;28;20021;-67
2022/12/28 01:37:25;;;;;;;5.57;5.25;;;;;;;5.79;100.00;101541.97;5244045;28;20028;-68
2022/12/28 01:39:55;;;;;;;6.35;5.72;;;;;;;5.88;100.00;101540.72;5243686;28;20104;-67
2022/12/28 01:42:25;;;;;;;6.28;5.97;;;;;;;5.90;100.00;101540.53;5243228;28;20481;-67
2022/12/28 01:44:56;;;;;;;6.35;5.93;;;;;;;5.93;100.00;101542.81;5243454;28;20024;-67
2022/12/28 01:47:33;;;;;;;6.22;5.90;;;;;;;5.95;100.00;101525.50;5243816;28;20535;-68
2022/12/28 01:50:14;;;;;;;6.63;5.90;;;;;;;5.98;100.00;101537.66;5226105;28;20024;-67
2022/12/28 01:52:50;;;;;;;7.28;6.05;;;;;;;5.99;100.00;101526.72;5243378;28;20300;-67
2022/12/28 01:55:27;;;;;;;6.68;5.68;;;;;;;6.03;100.00;101522.59;5243640;28;20024;-64
2022/12/28 01:58:03;;;;;;;5.50;5.18;;;;;;;6.09;100.00;101511.00;5243665;28;20037;-67
2022/12/28 02:00:34;;;;;;;8.20;5.20;;;;;;;6.14;100.00;101529.16;5243281;28;20074;-67
2022/12/28 02:03:10;;;;;;;4.82;4.60;;;;;;;6.05;100.00;101493.72;5243143;28;20235;-67
2022/12/28 02:05:44;;;;;;;7.47;4.72;;;;;;;6.17;100.00;101522.53;5243313;28;20074;-68
2022/12/28 02:08:36;;;;;;;6.53;5.82;;;;;;;6.20;100.00;101512.22;5246444;28;20029;-68
2022/12/28 02:11:12;;;;;;;7.75;6.95;;;;;;;6.21;100.00;101505.00;5247456;28;20028;-67
2022/12/28 02:13:44;;;;;;;6.15;5.70;;;;;;;6.22;100.00;101504.78;5246816;28;20043;-67
2022/12/28 02:16:15;;;;;;;6.28;5.53;;;;;;;6.18;100.00;101486.66;5248186;28;20392;-67
2022/12/28 02:18:46;;;;;;;6.03;5.63;;;;;;;6.14;100.00;101480.06;5248402;28;20113;-67
2022/12/28 02:22:06;;;;;;;5.97;5.38;;;;;;;6.18;100.00;101494.69;5248701;28;20030;-66
2022/12/28 02:25:08;;;;;;;6.80;6.35;;;;;;;6.13;100.00;101497.19;5163465;28;20491;-68
2022/12/28 02:28:36;;;;;;;6.90;6.05;;;;;;;6.12;100.00;101488.31;5163519;28;20503;-68
2022/12/28 02:31:15;;;;;;;7.05;5.95;;;;;;;6.08;100.00;101481.72;5192890;28;20033;-68
2022/12/28 02:33:54;;;;;;;12.15;7.38;;;;;;;6.09;100.00;101481.50;5229333;28;20040;-68
2022/12/28 02:36:32;;;;;;;8.50;7.90;;;;;;;6.01;100.00;101459.50;5247956;28;20028;-68
2022/12/28 02:39:10;;;;;;;7.15;6.45;;;;;;;5.92;100.00;101456.22;5213995;28;20040;-67
2022/12/28 02:41:42;;;;;;;8.50;7.78;;;;;;;5.91;100.00;101441.16;5247750;28;20055;-68
2022/12/28 02:50:04;;;;;;;10.07;7.07;;;;;;;6.05;100.00;101456.19;5246899;28;20055;-68
2022/12/28 02:50:05;;;;;;;7.50;7.00;;;;;;;6.11;100.00;101454.50;5247718;28;20031;-67
2022/12/28 02:53:04;;;;;;;7.45;6.80;;;;;;;6.05;100.00;101429.38;5246868;28;20032;-68
2022/12/28 02:59:14;;;;;;;6.28;5.95;;;;;;;6.09;100.00;101441.28;5247503;28;20117;-67
2022/12/28 03:02:03;;;;;;;10.07;6.65;;;;;;;6.09;100.00;101435.09;5247309;28;20455;-67
2022/12/28 03:04:36;;;;;;;6.57;6.05;;;;;;;6.10;100.00;101426.84;5228701;28;20114;-67
2022/12/28 03:10:16;;;;;;;8.30;7.60;;;;;;;6.13;100.00;101428.28;5275083;22;20389;-65
2022/12/28 03:12:59;;;;;;;;;;;;;;;6.13;100.00;101420.25;5281268;28;20066;-63
2022/12/28 03:15:35;;;;;;;7.70;7.05;;;;;;;6.14;100.00;101419.22;5288543;28;19915;-63
2022/12/28 03:32:31;;;;;;;5.53;5.22;;;;;;;6.37;100.00;101418.69;5289445;28;20030;-66
2022/12/28 03:35:02;;;;;;;5.72;5.43;;;;;;;6.39;100.00;101404.00;5289654;28;20475;-63
2022/12/28 03:37:46;;;;;;;6.30;5.88;;;;;;;6.40;100.00;101413.72;5289355;28;20551;-64
2022/12/28 03:40:37;;;;;;;6.95;6.30;;;;;;;6.45;100.00;101402.34;5289845;28;20032;-62
2022/12/28 03:46:14;;;;;;;10.07;5.60;;;;;;;6.54;100.00;101406.41;5289171;28;20445;-64
2022/12/28 03:48:46;;;;;;;7.10;6.40;;;;;;;6.61;100.00;101395.66;5289343;28;20348;-64
2022/12/28 03:51:20;;;;;;;6.55;6.05;;;;;;;6.57;100.00;101389.91;5288260;28;20433;-61
2022/12/28 03:53:51;;;;;;;6.20;5.80;;;;;;;6.64;100.00;101387.16;5288669;28;20045;-63
2022/12/28 03:56:25;;;;;;;7.18;5.05;;;;;;;6.64;100.00;101376.44;5289021;28;20016;-63
2022/12/28 03:58:56;;;;;;;5.90;5.35;;;;;;;6.72;100.00;101381.50;5289636;28;20487;-64
2022/12/28 04:01:26;;;;;;;5.32;5.07;;;;;;;6.74;100.00;101372.22;5287729;28;20050;-64
2022/12/28 04:03:57;;;;;;;5.80;5.30;;;;;;;6.75;100.00;101370.34;5288665;28;20468;-64
2022/12/28 04:06:27;;;;;;;7.20;5.47;;;;;;;6.64;100.00;101336.19;5288996;28;20027;-63
2022/12/28 04:08:57;;;;;;;6.05;5.40;;;;;;;6.85;100.00;101367.19;5288886;27;20371;-64
2022/12/28 04:11:28;;;;;;;6.60;6.10;;;;;;;6.81;100.00;101360.59;5289060;28;20058;-63
2022/12/28 04:13:58;;;;;;;6.28;5.88;;;;;;;6.83;100.00;101371.94;5288457;28;20028;-64
2022/12/28 04:16:29;;;;;;;8.57;5.88;;;;;;;6.63;100.00;101332.69;5288935;28;20106;-64
2022/12/28 04:18:59;;;;;;;10.10;4.80;;;;;;;6.83;100.00;101358.53;5289105;28;20059;-64
2022/12/28 04:21:30;;;;;;;6.25;5.75;;;;;;;6.79;100.00;101342.03;5288390;28;20080;-65
2022/12/28 04:24:00;;;;;;;5.43;5.13;;;;;;;6.83;100.00;101355.84;5288468;28;20039;-64
2022/12/28 04:26:31;;;;;;;10.13;5.93;;;;;;;6.82;100.00;101348.81;5289132;28;20048;-64
2022/12/28 04:29:01;;;;;;;7.88;5.57;;;;;;;6.61;100.00;101317.84;5288350;27;20019;-65
2022/12/28 04:31:32;;;;;;;10.38;5.90;;;;;;;6.74;100.00;101331.94;5287989;28;20059;-64
2022/12/28 04:34:03;;;;;;;10.30;6.03;;;;;;;6.85;100.00;101353.75;5287927;28;20493;-65
2022/12/28 04:36:33;;;;;;;7.45;6.95;;;;;;;6.78;100.00;101326.97;5288833;28;20062;-65
2022/12/28 04:39:04;;;;;;;7.15;5.32;;;;;;;6.73;100.00;101318.75;5288825;28;20454;-65
2022/12/28 04:41:35;;;;;;;5.22;4.93;;;;;;;6.88;100.00;101350.66;5288802;27;20039;-65
2022/12/28 04:44:05;;;;;;;6.18;5.57;;;;;;;6.92;100.00;101333.06;5288091;28;20410;-63
2022/12/28 04:46:36;;;;;;;8.40;7.00;;;;;;;6.98;100.00;101324.09;5288767;28;20024;-64
2022/12/28 04:49:06;;;;;;;4.85;4.55;;;;;;;6.95;100.00;101322.66;5288723;28;20024;-64
2022/12/28 04:51:36;;;;;;;5.85;5.40;;;;;;;7.00;100.00;101332.75;5288483;28;20439;-64
2022/12/28 04:54:12;;;;;;;5.65;5.25;;;;;;;6.98;100.00;101324.09;5288315;28;20080;-66
2022/12/28 04:56:42;;;;;;;7.03;6.45;;;;;;;7.03;100.00;101332.31;5288968;28;20031;-63
2022/12/28 04:59:12;;;;;;;6.18;5.57;;;;;;;7.03;100.00;101333.13;5288976;28;20055;-64
2022/12/28 05:01:43;;;;;;;5.68;5.28;;;;;;;7.03;100.00;101332.31;5288481;28;20429;-64
2022/12/28 05:04:13;;;;;;;4.97;4.60;;;;;;;6.80;100.00;101305.28;5288096;28;20015;-64
2022/12/28 05:06:43;;;;;;;5.82;5.53;;;;;;;7.02;100.00;101333.34;5288323;28;20031;-64
2022/12/28 05:09:14;;;;;;;6.50;5.20;;;;;;;7.05;100.00;101340.97;5288011;28;20027;-63
2022/12/28 05:11:44;;;;;;;5.18;4.78;;;;;;;7.01;100.00;101326.34;5287128;28;20030;-61
2022/12/28 05:14:15;;;;;;;12.52;5.07;;;;;;;7.05;100.00;101338.28;5288070;28;20102;-64
2022/12/28 05:16:50;;;;;;;6.32;4.47;;;;;;;7.05;100.00;101336.44;5288432;28;20028;-64
2022/12/28 05:19:20;;;;;;;5.15;4.78;;;;;;;7.07;100.00;101352.31;5288412;28;20032;-64
2022/12/28 05:21:50;;;;;;;5.47;5.18;;;;;;;7.06;100.00;101334.56;5288121;28;20049;-64
2022/12/28 05:24:21;;;;;;;5.18;4.85;;;;;;;6.98;100.00;101329.47;5288148;28;20019;-64
2022/12/28 05:26:51;;;;;;;4.07;3.88;;;;;;;6.97;100.00;101325.13;5288339;28;20106;-64
2022/12/28 05:29:21;;;;;;;6.10;5.57;;;;;;;6.89;100.00;101303.97;5288103;28;20031;-63
2022/12/28 05:31:52;;;;;;;5.72;5.30;;;;;;;6.75;100.00;101285.28;5287898;28;20023;-63
2022/12/28 05:34:22;;;;;;;5.38;4.93;;;;;;;7.09;100.00;101334.94;5286730;28;20098;-64
2022/12/28 05:36:52;;;;;;;5.10;4.80;;;;;;;7.07;100.00;101328.97;5288003;28;20023;-64
2022/12/28 05:39:23;;;;;;;5.70;5.38;;;;;;;7.11;100.00;101334.72;5288075;28;20028;-64
2022/12/28 05:41:53;;;;;;;7.75;5.10;;;;;;;7.05;100.00;101323.00;5289846;28;20024;-64
2022/12/28 05:44:24;;;;;;;5.43;4.68;;;;;;;7.16;100.00;101328.69;5292049;28;20031;-64
2022/12/28 05:46:55;;;;;;;8.25;5.68;;;;;;;6.90;100.00;101301.06;5292098;28;20023;-64
2022/12/28 05:49:25;;;;;;;5.90;5.45;;;;;;;7.14;100.00;101336.97;5292532;28;20059;-64
2022/12/28 05:51:55;;;;;;;5.53;4.57;;;;;;;7.16;100.00;101334.06;5292275;28;20015;-64
2022/12/28 05:54:26;;;;;;;5.15;4.75;;;;;;;7.15;100.00;101324.38;5291627;28;20047;-64
2022/12/28 05:56:57;;;;;;;4.05;3.75;;;;;;;7.10;100.00;101314.28;5290739;28;20109;-63
2022/12/28 05:59:27;;;;;;;4.95;4.43;;;;;;;7.22;100.00;101327.81;5291355;28;20022;-63
2022/12/28 06:01:57;;;;;;;5.25;4.85;;;;;;;7.23;100.00;101327.56;5291261;28;20366;-63
2022/12/28 06:04:28;;;;;;;6.60;6.20;;;;;;;7.23;100.00;101319.50;5291510;28;20446;-63
2022/12/28 06:06:58;;;;;;;5.45;4.97;;;;;;;7.09;100.00;101293.84;5291792;28;20423;-63
2022/12/28 06:09:28;;;;;;;4.60;4.30;;;;;;;7.24;100.00;101326.53;5291196;28;20023;-63
2022/12/28 06:11:59;;;;;;;4.97;4.50;;;;;;;7.05;100.00;101280.03;5291182;28;20023;-63
2022/12/28 06:14:29;;;;;;;5.22;4.80;;;;;;;7.19;100.00;101304.09;5281133;28;20440;-64
2022/12/28 06:17:00;;;;;;;7.80;4.88;;;;;;;7.28;100.00;101311.59;5275883;28;20028;-64
2022/12/28 06:19:30;;;;;;;7.00;5.15;;;;;;;7.30;100.00;101306.00;5269990;28;20089;-63
2022/12/28 06:22:00;;;;;;;4.05;3.83;;;;;;;7.30;100.00;101312.19;5269777;28;20085;-64
2022/12/28 06:24:31;;;;;;;7.30;4.75;;;;;;;7.31;100.00;101315.72;5269464;28;20106;-67
2022/12/28 06:27:01;;;;;;;7.03;4.40;;;;;;;7.31;100.00;101310.34;5269391;28;20019;-64
2022/12/28 06:29:32;;;;;;;16.52;4.53;;;;;;;7.34;100.00;101296.47;5269738;28;20080;-64
2022/12/28 06:32:02;;;;;;;6.47;5.13;;;;;;;7.36;100.00;101308.63;5269264;28;20092;-64
2022/12/28 06:34:32;;;;;;;4.82;4.53;;;;;;;7.35;100.00;101306.16;5269586;28;20039;-63
2022/12/28 06:37:03;;;;;;;4.65;4.22;;;;;;;7.33;100.00;101298.31;5269545;28;20099;-63
2022/12/28 06:39:33;;;;;;;9.27;4.50;;;;;;;7.19;100.00;101288.78;5269482;28;20028;-64
2022/12/28 06:42:03;;;;;;;4.35;4.05;;;;;;;7.29;100.00;101305.19;5268931;28;20031;-63
2022/12/28 06:44:34;;;;;;;4.35;3.97;;;;;;;7.27;100.00;101307.28;5269017;28;20157;-62
2022/12/28 06:47:04;;;;;;;5.88;5.32;;;;;;;7.24;100.00;101301.53;5268518;28;20020;-63
2022/12/28 06:49:34;;;;;;;7.72;4.50;;;;;;;7.24;100.00;101312.25;5269170;28;20045;-63
2022/12/28 06:52:05;;;;;;;7.35;5.35;;;;;;;7.20;100.00;101303.88;5268675;28;20028;-63
2022/12/28 06:54:35;;;;;;;10.20;5.07;;;;;;;7.17;100.00;101300.78;5268921;28;20020;-63
2022/12/28 06:57:06;;;;;;;5.15;4.57;;;;;;;7.18;100.00;101297.06;5268754;28;20108;-63
2022/12/28 06:59:36;;;;;;;4.63;4.22;;;;;;;7.16;100.00;101297.28;5268695;28;20041;-63
2022/12/28 07:02:08;;;;;;;4.75;4.50;;;;;;;7.13;100.00;101292.34;5268667;28;20539;-63
2022/12/28 07:04:38;;;;;;;5.18;4.00;;;;;;;7.08;100.00;101278.78;5268507;28;20023;-61
2022/12/28 07:07:08;;;;;;;8.23;4.60;;;;;;;7.11;100.00;101276.47;5268217;28;20051;-62
2022/12/28 07:09:39;;;;;;;3.95;3.75;;;;;;;7.11;100.00;101286.38;5268417;28;20034;-63
2022/12/28 07:12:09;;;;;;;5.22;4.47;;;;;;;7.09;100.00;101281.25;5267167;28;20032;-63
2022/12/28 07:14:39;;;;;;;4.85;4.55;;;;;;;7.08;100.00;101279.59;5269158;28;20077;-63
2022/12/28 07:17:10;;;;;;;5.55;5.18;;;;;;;7.10;100.00;101282.06;5268606;28;20027;-63
2022/12/28 07:19:40;;;;;;;5.38;5.00;;;;;;;7.11;100.00;101279.16;5268727;28;20028;-63
2022/12/28 07:22:11;;;;;;;6.32;5.93;;;;;;;6.66;100.00;101208.75;5264791;28;20034;-63
2022/12/28 07:24:41;;;;;;;5.38;4.43;;;;;;;7.10;100.00;101277.50;5264760;28;20106;-61
2022/12/28 07:27:11;;;;;;;8.60;5.05;;;;;;;7.10;100.00;101266.75;5268654;28;20035;-63
2022/12/28 07:29:42;;;;;;;4.00;3.83;;;;;;;7.09;100.00;101269.69;5268534;28;20021;-63
2022/12/28 07:32:12;;;;;;;11.80;4.63;;;;;;;7.10;100.00;101266.75;5267971;28;20069;-63
2022/12/28 07:34:42;;;;;;;5.45;4.93;;;;;;;7.11;100.00;101259.53;5266907;28;20024;-64
2022/12/28 07:37:13;;;;;;;4.70;4.32;;;;;;;7.11;100.00;101268.41;5267946;28;20038;-64
2022/12/28 07:39:43;;;;;;;7.00;5.40;;;;;;;7.14;100.00;101267.16;5268323;28;20032;-64
2022/12/28 07:42:14;;;;;;;8.20;4.93;;;;;;;7.17;100.00;101264.00;5267917;28;20020;-64
2022/12/28 07:44:46;;;;;;;4.35;4.10;;;;;;;7.18;100.00;101264.84;5267962;28;20020;-62
2022/12/28 07:47:17;;;;;;;7.68;5.38;;;;;;;7.23;100.00;101260.41;5267959;28;20023;-64
2022/12/28 07:49:47;;;;;;;6.22;5.55;;;;;;;7.29;100.00;101272.13;5271191;28;20037;-63
2022/12/28 07:52:17;;;;;;;7.30;4.60;;;;;;;7.32;100.00;101259.06;5280217;28;20057;-64
2022/12/28 07:54:48;;;;;;;5.32;4.97;;;;;;;7.39;100.00;101270.56;5289988;28;20031;-64
2022/12/28 07:57:18;;;;;;;8.05;3.97;;;;;;;7.24;100.00;101235.19;5280155;28;20399;-64
2022/12/28 07:59:48;;;;;;;4.50;4.15;;;;;;;7.45;100.00;101256.25;5269806;28;20081;-66
2022/12/28 08:02:19;;;;;;;4.53;4.22;;;;;;;7.47;100.00;101247.13;5269080;28;20031;-65
2022/12/28 08:04:49;;;;;;;9.15;4.78;;;;;;;7.48;100.00;101256.84;5268332;28;20472;-63
2022/12/28 08:07:20;;;;;;;6.05;5.10;;;;;;;7.55;100.00;101255.69;5269942;28;20023;-63
2022/12/28 08:09:50;;;;;;;3.78;3.47;;;;;;;7.59;100.00;101248.00;5269939;28;20444;-64
2022/12/28 08:12:20;;;;;;;13.55;4.55;;;;;;;7.64;100.00;101245.44;5269256;28;20541;-64
2022/12/28 08:14:51;;;;;;;4.35;3.97;;;;;;;7.66;100.00;101241.50;5269405;28;20472;-64
2022/12/28 08:17:21;;;;;;;8.60;4.07;;;;;;;7.68;100.00;101243.97;5269973;28;20039;-64
2022/12/28 08:19:54;;;;;;;3.55;3.38;;;;;;;7.71;100.00;101235.44;5269907;28;20111;-63
2022/12/28 08:22:24;;;;;;;5.57;4.72;;;;;;;7.62;100.00;101226.03;5268978;28;20028;-64
2022/12/28 08:24:55;;;;;;;6.28;3.65;;;;;;;7.76;100.00;101238.28;5268292;28;20069;-65
2022/12/28 08:27:25;;;;;;;2.95;2.78;;;;;;;7.77;100.00;101234.53;5268870;28;20036;-65
2022/12/28 08:29:57;;;;;;;5.72;4.07;;;;;;;7.80;100.00;101239.44;5270664;28;20044;-65
2022/12/28 08:32:28;;;;;;;4.43;3.75;;;;;;;7.81;100.00;101243.75;5269299;28;20052;-65
2022/12/28 08:34:58;;;;;;;5.53;4.70;;;;;;;7.81;100.00;101238.38;5269563;28;20122;-65
2022/12/28 08:37:28;;;;;;;3.30;3.10;;;;;;;7.82;100.00;101239.19;5269920;28;20081;-65
2022/12/28 08:39:59;;;;;;;4.38;4.05;;;;;;;7.82;100.00;101248.09;5269516;28;20055;-65
2022/12/28 08:42:29;;;;;;;3.90;3.70;;;;;;;7.81;100.00;101246.44;5269224;28;20024;-64
2022/12/28 08:44:59;;;;;;;4.72;3.85;;;;;;;7.73;100.00;101239.53;5269656;28;20056;-64
2022/12/28 08:47:30;;;;;;;5.30;4.50;;;;;;;7.79;100.00;101248.56;5269600;28;20028;-64
2022/12/28 08:50:00;;;;;;;4.63;4.38;;;;;;;7.79;100.00;101243.19;5269208;28;20024;-64
2022/12/28 08:52:30;;;;;;;4.55;4.18;;;;;;;7.79;100.00;101235.13;5269343;28;20024;-69
2022/12/28 08:55:01;;;;;;;3.38;3.17;;;;;;;7.69;100.00;101218.72;5269789;28;20490;-65
2022/12/28 08:57:32;;;;;;;4.00;3.80;;;;;;;7.79;100.00;101237.81;5269047;28;20036;-64
2022/12/28 09:00:05;;;;;;;7.40;4.03;;;;;;;7.77;100.00;101240.72;5268875;28;20031;-64
2022/12/28 09:02:35;;;;;;;4.93;4.25;;;;;;;7.68;100.00;101219.75;5267610;28;20383;-64
2022/12/28 09:05:06;;;;;;;4.47;4.07;;;;;;;7.80;100.00;101234.88;5268566;28;20027;-64
2022/12/28 09:07:37;;;;;;;4.82;4.22;;;;;;;7.66;100.00;101216.47;5268776;28;20464;-65
2022/12/28 09:10:07;;;;;;;6.85;4.40;;;;;;;7.84;100.00;101242.47;5267565;28;20047;-63
2022/12/28 09:12:38;;;;;;;4.00;3.75;;;;;;;7.83;100.00;101238.97;5268937;22;20040;-67
2022/12/28 09:15:08;;;;;;;5.60;4.40;;;;;;;7.71;100.00;101214.75;5230968;28;20150;-66
2022/12/28 09:17:39;;;;;;;4.63;4.22;;;;;;;7.58;100.00;101206.88;5225094;28;20528;-65
2022/12/28 09:20:10;;;;;;;4.38;4.03;;;;;;;7.76;100.00;101231.03;5225141;28;20477;-67
2022/12/28 09:22:40;;;;;;;4.72;4.38;;;;;;;7.74;100.00;101235.00;5224704;28;20071;-67
2022/12/28 09:25:10;;;;;;;5.22;4.93;;;;;;;7.74;100.00;101237.69;5225319;28;20084;-67
2022/12/28 09:27:42;;;;;;;5.18;4.95;;;;;;;7.70;100.00;101234.63;5224904;28;20449;-67
2022/12/28 09:30:12;;;;;;;4.18;3.88;;;;;;;7.72;100.00;101242.47;5224633;28;20021;-67
2022/12/28 09:32:43;;;;;;;4.63;4.43;;;;;;;7.72;100.00;101240.59;5224024;28;20023;-66
2022/12/28 09:35:13;;;;;;;5.72;4.55;;;;;;;7.72;100.00;101243.28;5224781;28;20029;-67
2022/12/28 09:37:43;;;;;;;4.25;3.97;;;;;;;7.71;100.00;101235.44;5224901;28;20029;-66
2022/12/28 09:40:14;;;;;;;5.95;5.45;;;;;;;7.74;100.00;101235.81;5224976;28;20024;-65
2022/12/28 09:42:44;;;;;;;5.10;4.80;;;;;;;7.57;100.00;101212.47;5240097;28;20029;-65
2022/12/28 09:45:25;;;;;;;4.22;3.92;;;;;;;7.77;100.00;101239.91;5227503;28;20033;-65
2022/12/28 09:48:07;;;;;;;4.05;3.65;;;;;;;7.79;100.00;101245.88;5245985;28;20021;-66
2022/12/28 09:50:38;;;;;;;4.90;4.50;;;;;;;7.82;100.00;101247.25;5245582;28;20035;-65
2022/12/28 09:53:31;;;;;;;4.50;4.30;;;;;;;7.79;100.00;101237.81;5244714;28;20031;-65
2022/12/28 09:56:23;;;;;;;6.35;4.93;;;;;;;7.82;100.00;101236.50;5245605;28;20029;-66
2022/12/28 09:58:54;;;;;;;5.03;4.72;;;;;;;7.81;100.00;101233.00;5245854;28;20487;-65
2022/12/28 10:01:26;;;;;;;4.35;3.80;;;;;;;7.80;100.00;101228.66;5245118;28;20028;-65
2022/12/28 10:03:59;;;;;;;5.43;5.00;;;;;;;7.82;100.00;101239.19;5226863;28;20020;-66
2022/12/28 10:06:34;;;;;;;4.82;4.53;;;;;;;7.87;100.00;101237.47;5245668;28;20033;-66
2022/12/28 10:09:15;;;;;;;5.78;5.53;;;;;;;7.48;100.00;101176.22;5245543;28;20024;-66
2022/12/28 10:11:45;;;;;;;5.55;4.97;;;;;;;7.86;100.00;101235.84;5244956;28;20055;-65
2022/12/28 10:14:26;;;;;;;10.25;5.47;;;;;;;7.86;100.00;101222.38;5245214;28;20103;-65
2022/12/28 10:16:57;;;;;;;6.13;5.53;;;;;;;7.88;100.00;101236.44;5228948;28;20040;-66
2022/12/28 10:19:28;;;;;;;5.55;5.10;;;;;;;7.89;100.00;101227.31;5224465;28;20366;-67
2022/12/28 10:22:03;;;;;;;11.40;5.25;;;;;;;7.90;100.00;101234.31;5223962;28;20028;-67
2022/12/28 10:24:33;;;;;;;7.03;5.57;;;;;;;7.86;100.00;101219.69;5206579;28;20025;-69
2022/12/28 10:27:06;;;;;;;5.13;4.75;;;;;;;7.78;100.00;101199.34;5224386;28;20455;-66
2022/12/28 10:29:37;;;;;;;8.23;4.85;;;;;;;7.68;100.00;101190.19;5227373;28;20075;-66
2022/12/28 10:32:08;;;;;;;4.82;4.53;;;;;;;7.88;100.00;101225.66;5227774;28;20476;-67
2022/12/28 10:35:00;;;;;;;3.92;3.65;;;;;;;7.88;100.00;101212.22;5227794;28;20029;-66
2022/12/28 10:37:35;;;;;;;8.27;5.13;;;;;;;7.83;100.00;101214.78;5210471;28;20388;-66
2022/12/28 10:40:24;;;;;;;5.57;5.05;;;;;;;7.79;100.00;101200.19;5228269;28;20021;-67
2022/12/28 10:42:55;;;;;;;5.15;4.75;;;;;;;7.82;100.00;101210.44;5227674;28;20024;-66
2022/12/28 10:45:39;;;;;;;16.85;5.05;;;;;;;7.76;100.00;101200.63;5227855;28;20032;-67
2022/12/28 10:48:20;;;;;;;5.38;4.50;;;;;;;7.89;100.00;101213.88;5228104;28;20029;-67
2022/12/28 10:50:57;;;;;;;10.52;6.55;;;;;;;7.88;100.00;101206.84;5228197;28;20366;-66
2022/12/28 10:53:39;;;;;;;5.00;4.70;;;;;;;7.92;100.00;101207.22;5227477;28;20025;-66
2022/12/28 10:56:12;;;;;;;4.72;4.43;;;;;;;7.96;100.00;101217.28;5228232;28;20031;-68
2022/12/28 10:58:45;;;;;;;7.47;4.72;;;;;;;7.93;100.00;101216.91;5228270;28;20029;-66
2022/12/28 11:01:18;;;;;;;4.25;4.05;;;;;;;7.94;100.00;101207.81;5228002;28;20188;-66
2022/12/28 11:03:54;;;;;;;4.53;3.67;;;;;;;7.95;100.00;101201.38;5226947;28;20108;-66
2022/12/28 11:06:35;;;;;;;5.40;3.97;;;;;;;8.00;100.00;101196.94;5227763;28;20033;-66
2022/12/28 11:09:11;;;;;;;4.55;4.20;;;;;;;8.02;100.00;101194.84;5228038;28;20028;-71
2022/12/28 11:11:44;;;;;;;4.55;4.25;;;;;;;8.02;100.00;101184.09;5227426;28;20108;-66
2022/12/28 11:14:21;;;;;;;4.85;4.40;;;;;;;8.03;100.00;101176.84;5209659;28;20158;-66
2022/12/28 11:16:52;;;;;;;8.35;5.28;;;;;;;8.03;100.00;101168.78;5209825;28;20096;-67
2022/12/28 11:19:24;;;;;;;5.50;4.97;;;;;;;8.07;100.00;101169.97;5228223;28;20021;-67
2022/12/28 11:21:55;;;;;;;9.55;4.60;;;;;;;8.08;100.00;101161.63;5227669;28;20036;-64
2022/12/28 11:24:26;;;;;;;4.45;4.15;;;;;;;8.07;100.00;101165.41;5227600;28;20041;-66
2022/12/28 11:26:56;;;;;;;8.15;4.53;;;;;;;8.02;100.00;101141.06;5209594;28;20060;-66
2022/12/28 11:29:27;;;;;;;4.68;4.40;;;;;;;8.06;100.00;101114.53;5227545;28;20025;-65
2022/12/28 11:32:03;;;;;;;4.38;3.88;;;;;;;8.17;100.00;101132.53;5227473;28;20436;-66
2022/12/28 11:34:36;;;;;;;5.38;4.90;;;;;;;8.19;100.00;101126.91;5228862;28;20028;-67
2022/12/28 11:37:12;;;;;;;5.25;4.85;;;;;;;8.18;100.00;101126.09;5229027;28;20032;-67
2022/12/28 11:39:47;;;;;;;5.20;4.78;;;;;;;8.18;100.00;101118.03;5230098;28;20406;-67
2022/12/28 11:42:36;;;;;;;4.25;3.85;;;;;;;8.16;100.00;101112.06;5210277;28;20447;-66
2022/12/28 11:45:15;;;;;;;9.02;5.30;;;;;;;8.14;100.00;101109.59;5228484;28;20031;-71
2022/12/28 11:47:45;;;;;;;3.65;3.50;;;;;;;7.93;100.00;101075.22;5227878;28;20033;-67
2022/12/28 11:50:40;;;;;;;4.65;4.35;;;;;;;7.85;100.00;101058.59;5227797;28;20029;-68
2022/12/28 11:53:42;;;;;;;6.18;5.70;;;;;;;8.18;100.00;101101.06;5210044;28;20142;-67
2022/12/28 11:56:17;;;;;;;4.38;4.03;;;;;;;8.18;100.00;101085.75;5210469;28;20052;-68
2022/12/28 11:58:57;;;;;;;5.68;3.58;;;;;;;8.20;100.00;101093.59;5210593;28;20193;-68
2022/12/28 12:01:35;;;;;;;4.43;4.15;;;;;;;8.22;100.00;101091.47;5227615;28;20025;-68
2022/12/28 12:04:15;;;;;;;4.90;3.75;;;;;;;8.25;100.00;101082.94;5227333;28;20027;-67
2022/12/28 12:06:47;;;;;;;5.10;4.75;;;;;;;8.28;100.00;101079.78;5209334;28;20108;-67
2022/12/28 12:09:20;;;;;;;5.65;4.97;;;;;;;8.31;100.00;101061.28;5227486;28;20021;-67
2022/12/28 12:12:12;;;;;;;5.78;4.68;;;;;;;8.33;100.00;101058.41;5209350;28;20036;-66
2022/12/28 12:14:51;;;;;;;7.40;4.30;;;;;;;8.34;100.00;101052.78;5225202;28;20089;-68
2022/12/28 12:17:24;;;;;;;2.97;2.83;;;;;;;8.41;100.00;101040.00;5227488;28;20457;-68
2022/12/28 12:20:00;;;;;;;4.40;4.10;;;;;;;8.45;100.00;101037.66;5209028;28;20392;-68